Otter River, Massachusetts
Current Conditions -  °F | °C
As of 10:52 AM on Friday 24 Oct 2014 (Local Time) from KORE Reporting Station
Overcast Overcast  
Wind Chill: 43°   Ceiling: 1700
Heat Index: 47°   Visibility: 10mi
Dew Point: 42°   Wind: 8mph
Humidity: 83%   Direction: 320°NW
Pressure: 29.77"   Gusts: NA
Location:  42.602°N, 72.089°W
Report Text: KORE 241452Z AUTO 32007KT 10SM OVC017 08/06 A2977 RMK AO2 SLP082 60000 T00830056 51006
Loading
Personal Weather Stations






























Interactive Weather Map
Tropical Storm Tracking
New forecast layout! Learn more

10-Day Weather Forecast

Advertisements
Track Severe Weather on mobile